createdAt,value
2018-02-05T00:00:57.887Z,10.80
2018-02-05T00:03:25.518Z,12.63
2018-02-05T00:05:54.716Z,14.67
2018-02-05T00:08:26.105Z,12.67
2018-02-05T00:10:58.584Z,13.50
2018-02-05T00:13:28.403Z,12.70
2018-02-05T00:15:55.925Z,14.53
2018-02-05T00:18:23.710Z,10.13
2018-02-05T00:23:35.284Z,13.63
2018-02-05T00:26:02.814Z,12.93
2018-02-05T00:28:30.335Z,12.10
2018-02-05T00:30:57.850Z,13.97
2018-02-05T00:33:25.407Z,14.57
2018-02-05T00:35:52.956Z,14.80
2018-02-05T00:38:20.536Z,16.57
2018-02-05T00:40:48.395Z,15.40
2018-02-05T00:43:15.994Z,10.90
2018-02-05T00:45:43.536Z,14.37
2018-02-05T00:48:11.055Z,13.67
2018-02-05T00:50:38.939Z,15.43
2018-02-05T00:53:06.828Z,14.37
2018-02-05T00:55:34.472Z,14.70
2018-02-05T00:58:02.552Z,12.40
2018-02-05T01:00:30.132Z,17.67
2018-02-05T01:02:58.454Z,15.40
2018-02-05T01:05:26.021Z,15.23
2018-02-05T01:07:53.546Z,13.13
2018-02-05T01:10:21.077Z,17.97
2018-02-05T01:12:48.982Z,16.37
2018-02-05T01:15:16.782Z,16.60
2018-02-05T01:17:44.380Z,17.87
2018-02-05T01:20:12.849Z,17.40
2018-02-05T01:22:41.152Z,20.83
2018-02-05T01:25:09.593Z,21.33
2018-02-05T01:27:37.130Z,24.87
2018-02-05T01:30:06.224Z,20.00
2018-02-05T01:32:33.763Z,22.00
2018-02-05T01:35:01.302Z,18.03
2018-02-05T01:37:28.879Z,15.93
2018-02-05T01:39:56.424Z,22.10
2018-02-05T01:42:24.230Z,19.20
2018-02-05T01:44:51.764Z,20.23
2018-02-05T01:47:19.299Z,17.33
2018-02-05T01:49:46.837Z,17.33
2018-02-05T01:52:14.385Z,17.93
2018-02-05T01:54:42.248Z,16.70
2018-02-05T01:57:09.794Z,18.90
2018-02-05T01:59:37.340Z,17.03
2018-02-05T02:02:04.878Z,18.30
2018-02-05T02:04:32.951Z,17.83
2018-02-05T02:07:00.538Z,15.97
2018-02-05T02:09:28.099Z,20.03
2018-02-05T02:11:55.609Z,18.37
2018-02-05T02:14:23.142Z,21.00
2018-02-05T02:16:50.688Z,19.40
2018-02-05T02:19:18.302Z,18.20
2018-02-05T02:21:45.818Z,16.60
2018-02-05T02:24:13.337Z,21.33
2018-02-05T02:26:40.891Z,18.10
2018-02-05T02:29:08.460Z,20.00
2018-02-05T02:31:35.993Z,15.60
2018-02-05T02:34:03.536Z,16.57
2018-02-05T02:36:31.976Z,19.00
2018-02-05T02:38:59.506Z,17.03
2018-02-05T02:41:27.058Z,18.87
2018-02-05T02:43:54.588Z,22.43
2018-02-05T02:46:22.125Z,18.70
2018-02-05T02:48:49.699Z,22.00
2018-02-05T02:51:17.258Z,18.23
2018-02-05T02:53:44.827Z,18.33
2018-02-05T02:56:13.383Z,17.67
2018-02-05T02:58:40.925Z,21.00
2018-02-05T03:01:08.531Z,18.53
2018-02-05T03:03:36.121Z,22.13
2018-02-05T03:06:03.645Z,16.43
2018-02-05T03:08:31.185Z,21.70
2018-02-05T03:10:58.729Z,18.83
2018-02-05T03:13:26.296Z,20.13
2018-02-05T03:15:53.825Z,20.87
2018-02-05T03:18:21.351Z,22.20
2018-02-05T03:20:48.874Z,18.10
2018-02-05T03:23:16.437Z,16.17
2018-02-05T03:25:44.011Z,20.60
2018-02-05T03:28:11.533Z,17.60
2018-02-05T03:30:39.118Z,21.63
2018-02-05T03:33:06.667Z,19.00
2018-02-05T03:35:34.191Z,22.70
2018-02-05T03:38:01.709Z,17.43
2018-02-05T03:40:29.262Z,18.20
2018-02-05T03:42:56.855Z,26.50
2018-02-05T03:45:24.421Z,26.43
2018-02-05T03:47:51.947Z,21.70
2018-02-05T03:50:19.869Z,20.57
2018-02-05T03:52:47.426Z,24.57
2018-02-05T03:55:15.056Z,19.03
2018-02-05T03:57:42.891Z,22.40
2018-02-05T04:00:10.624Z,22.50
2018-02-05T04:02:38.170Z,21.10
2018-02-05T04:05:05.704Z,21.27
2018-02-05T04:07:33.255Z,22.07
2018-02-05T04:10:00.789Z,25.33
2018-02-05T04:12:28.458Z,26.37
2018-02-05T04:14:55.969Z,23.90
2018-02-05T04:17:23.496Z,26.97
2018-02-05T04:19:51.013Z,27.47
2018-02-05T04:22:18.548Z,23.90
2018-02-05T04:24:46.342Z,19.17
2018-02-05T04:27:13.872Z,19.53
2018-02-05T04:29:41.396Z,19.00
2018-02-05T04:32:09.171Z,21.00
2018-02-05T04:34:36.737Z,19.00
2018-02-05T04:37:04.336Z,21.17
2018-02-05T04:39:31.856Z,19.77
2018-02-05T04:41:59.406Z,27.13
2018-02-05T04:44:26.946Z,22.30
2018-02-05T04:46:54.483Z,22.07
2018-02-05T04:49:22.059Z,23.20
2018-02-05T04:51:49.577Z,26.00
2018-02-05T04:54:17.150Z,23.90
2018-02-05T04:56:44.924Z,20.90
2018-02-05T04:59:12.821Z,26.67
2018-02-05T05:01:40.469Z,31.00
2018-02-05T05:04:08.243Z,27.20
2018-02-05T05:06:35.786Z,24.93
2018-02-05T05:09:03.557Z,27.03
2018-02-05T05:11:31.319Z,22.97
2018-02-05T05:13:58.917Z,24.00
2018-02-05T05:16:27.310Z,28.40
2018-02-05T05:18:54.896Z,20.67
2018-02-05T05:21:23.280Z,23.30
2018-02-05T05:23:51.050Z,24.67
2018-02-05T05:26:18.685Z,26.97
2018-02-05T05:28:46.560Z,25.90
2018-02-05T05:31:14.166Z,24.20
2018-02-05T05:33:41.914Z,28.67
2018-02-05T05:36:09.663Z,24.77
2018-02-05T05:38:37.327Z,24.63
2018-02-05T05:41:05.258Z,23.42
2018-02-05T05:43:32.958Z,23.77
2018-02-05T05:46:00.532Z,26.77
2018-02-05T05:48:28.298Z,23.83
2018-02-05T05:50:56.076Z,30.40
2018-02-05T05:53:23.679Z,25.37
2018-02-05T05:55:51.277Z,26.10
2018-02-05T05:58:18.875Z,27.83
2018-02-05T06:00:46.466Z,26.77
2018-02-05T06:03:14.021Z,29.90
2018-02-05T06:05:41.553Z,27.83
2018-02-05T06:08:09.095Z,25.30
2018-02-05T06:10:36.635Z,28.23
2018-02-05T06:13:04.563Z,25.07
2018-02-05T06:15:32.124Z,27.43
2018-02-05T06:17:59.732Z,27.43
2018-02-05T06:20:27.315Z,26.20
2018-02-05T06:22:54.908Z,27.33
2018-02-05T06:25:22.452Z,26.63
2018-02-05T06:27:50.195Z,25.53
2018-02-05T06:30:17.762Z,26.83
2018-02-05T06:32:45.368Z,25.57
2018-02-05T06:35:13.011Z,31.97
2018-02-05T06:37:40.552Z,33.50
2018-02-05T06:40:08.106Z,29.27
2018-02-05T06:42:35.674Z,28.67
2018-02-05T06:45:04.474Z,26.10
2018-02-05T06:47:32.076Z,32.70
2018-02-05T06:49:59.613Z,30.67
2018-02-05T06:52:39.008Z,27.53
2018-02-05T06:55:18.249Z,27.80
2018-02-05T06:57:46.644Z,29.20
2018-02-05T07:00:14.505Z,27.80
2018-02-05T07:02:42.021Z,31.50
2018-02-05T07:05:09.680Z,25.30
2018-02-05T07:07:37.274Z,25.80
2018-02-05T07:10:04.811Z,25.43
2018-02-05T07:12:32.397Z,25.20
2018-02-05T07:15:01.377Z,28.83
2018-02-05T07:17:28.995Z,22.70
2018-02-05T07:19:56.558Z,28.03
2018-02-05T07:22:24.102Z,22.17
2018-02-05T07:24:51.662Z,23.43
2018-02-05T07:27:19.221Z,26.37
2018-02-05T07:29:50.892Z,22.30
2018-02-05T07:32:18.484Z,34.53
2018-02-05T07:34:46.072Z,25.73
2018-02-05T07:37:13.644Z,25.13
2018-02-05T07:39:41.190Z,27.23
2018-02-05T07:42:09.137Z,21.87
2018-02-05T07:44:36.696Z,21.30
2018-02-05T07:47:04.399Z,21.03
2018-02-05T07:49:31.983Z,22.50
2018-02-05T07:51:59.729Z,20.77
2018-02-05T07:54:27.564Z,23.97
2018-02-05T07:56:56.442Z,27.17
2018-02-05T07:59:24.124Z,21.47
2018-02-05T08:01:51.922Z,25.13
2018-02-05T08:04:19.449Z,27.87
2018-02-05T08:06:47.041Z,23.97
2018-02-05T08:09:14.942Z,23.13
2018-02-05T08:11:42.522Z,22.00
2018-02-05T08:14:10.602Z,20.77
2018-02-05T08:16:38.262Z,25.87
2018-02-05T08:19:05.960Z,21.47
2018-02-05T08:21:33.692Z,20.63
2018-02-05T08:24:01.292Z,21.30
2018-02-05T08:26:29.232Z,23.67
2018-02-05T08:28:56.833Z,27.43
2018-02-05T08:31:24.585Z,23.30
2018-02-05T08:33:52.161Z,26.33
2018-02-05T08:36:19.753Z,22.20
2018-02-05T08:38:47.400Z,22.90
2018-02-05T08:41:15.173Z,24.83
2018-02-05T08:43:42.925Z,26.63
2018-02-05T08:46:11.160Z,31.40
2018-02-05T08:48:39.411Z,28.83
2018-02-05T08:51:09.095Z,21.13
2018-02-05T08:53:37.227Z,22.77
2018-02-05T08:56:06.838Z,20.53
2018-02-05T08:58:34.442Z,19.83
2018-02-05T09:01:02.060Z,22.00
2018-02-05T09:03:29.682Z,21.67
2018-02-05T09:05:57.286Z,22.10
2018-02-05T09:08:24.901Z,22.13
2018-02-05T09:10:52.976Z,25.50
2018-02-05T09:13:21.232Z,20.50
2018-02-05T09:15:48.859Z,26.57
2018-02-05T09:18:16.502Z,21.90
2018-02-05T09:20:44.059Z,19.17
2018-02-05T09:23:11.652Z,17.30
2018-02-05T09:25:39.184Z,21.10
2018-02-05T09:28:07.932Z,19.57
2018-02-05T09:30:35.541Z,21.93
2018-02-05T09:33:03.561Z,19.33
2018-02-05T09:35:31.489Z,22.13
2018-02-05T09:38:00.166Z,23.53
2018-02-05T09:40:27.774Z,17.30
2018-02-05T09:42:57.162Z,17.50
2018-02-05T09:45:24.818Z,16.13
2018-02-05T09:47:52.445Z,24.50
2018-02-05T09:50:20.038Z,17.93
2018-02-05T09:52:47.638Z,16.93
2018-02-05T09:55:16.009Z,25.67
2018-02-05T09:57:43.610Z,26.60
2018-02-05T10:00:11.554Z,25.73
2018-02-05T10:02:39.851Z,17.70
2018-02-05T10:05:07.974Z,17.50
2018-02-05T10:07:36.071Z,16.70
2018-02-05T10:10:04.995Z,18.23
2018-02-05T10:12:33.356Z,24.17
2018-02-05T10:15:00.948Z,21.47
2018-02-05T10:20:11.528Z,16.90
2018-02-05T10:22:40.169Z,13.70
2018-02-05T10:25:08.193Z,17.20
2018-02-05T10:27:36.613Z,28.30
2018-02-05T10:30:08.210Z,16.70
2018-02-05T10:32:36.400Z,27.43
2018-02-05T10:35:05.295Z,15.93
2018-02-05T10:37:33.742Z,17.03
2018-02-05T10:40:08.150Z,27.13
2018-02-05T10:42:36.521Z,17.40
2018-02-05T10:45:05.279Z,15.27
2018-02-05T10:47:32.962Z,17.97
2018-02-05T10:50:00.800Z,12.50
2018-02-05T10:52:31.804Z,18.70
2018-02-05T10:55:21.414Z,14.40
2018-02-05T10:57:51.150Z,15.07
2018-02-05T11:00:18.802Z,10.80
2018-02-05T11:02:47.071Z,14.10
2018-02-05T11:05:14.822Z,12.13
2018-02-05T11:07:42.480Z,13.90
2018-02-05T11:10:10.444Z,11.87
2018-02-05T11:12:59.276Z,20.73
2018-02-05T11:15:27.747Z,11.67
2018-02-05T11:17:55.430Z,14.93
2018-02-05T11:20:22.959Z,10.50
2018-02-05T11:22:50.702Z,10.33
2018-02-05T11:25:19.333Z,10.40
2018-02-05T11:27:46.889Z,10.97
2018-02-05T11:30:14.546Z,9.70
2018-02-05T11:32:42.076Z,14.67
2018-02-05T11:35:09.603Z,6.80
2018-02-05T11:37:37.178Z,8.90
2018-02-05T11:40:04.918Z,5.47
2018-02-05T11:42:33.390Z,8.23
2018-02-05T11:45:01.610Z,7.70
2018-02-05T11:47:29.122Z,7.50
2018-02-05T11:49:56.638Z,12.67
2018-02-05T11:52:24.691Z,13.47
2018-02-05T11:54:52.205Z,7.70
2018-02-05T11:57:19.718Z,9.17
2018-02-05T11:59:47.304Z,9.97
2018-02-05T12:02:14.857Z,9.30
2018-02-05T12:04:42.850Z,11.53
2018-02-05T12:07:10.385Z,11.00
2018-02-05T12:09:38.420Z,8.87
2018-02-05T12:12:05.948Z,7.13
2018-02-05T12:14:33.491Z,8.17
2018-02-05T12:17:01.098Z,7.67
2018-02-05T12:19:28.785Z,9.20
2018-02-05T12:21:56.536Z,11.57
2018-02-05T12:24:24.134Z,10.53
2018-02-05T12:26:51.742Z,9.63
2018-02-05T12:29:19.263Z,8.73
2018-02-05T12:31:46.844Z,6.77
2018-02-05T12:34:14.372Z,7.73
2018-02-05T12:36:42.268Z,5.67
2018-02-05T12:39:09.822Z,6.53
2018-02-05T12:41:37.386Z,5.93
2018-02-05T12:44:05.288Z,5.00
2018-02-05T12:46:32.843Z,7.70
2018-02-05T12:49:00.389Z,6.63
2018-02-05T12:51:27.896Z,5.93
2018-02-05T12:53:55.495Z,6.70
2018-02-05T12:56:23.132Z,6.47
2018-02-05T12:58:50.762Z,11.43
2018-02-05T13:04:35.242Z,9.63
2018-02-05T13:07:02.845Z,7.37
2018-02-05T13:09:30.349Z,5.33
2018-02-05T13:11:57.909Z,5.13
2018-02-05T13:14:25.487Z,6.20
2018-02-05T13:16:53.334Z,5.67
2018-02-05T13:19:20.949Z,6.00
2018-02-05T13:21:48.741Z,5.40
2018-02-05T13:24:16.262Z,7.27
2018-02-05T13:26:43.812Z,6.43
2018-02-05T13:29:11.455Z,10.00
2018-02-05T13:31:39.025Z,7.53
2018-02-05T13:34:08.062Z,7.50
2018-02-05T13:36:35.582Z,8.80
2018-02-05T13:39:03.226Z,7.00
2018-02-05T13:41:30.761Z,12.17
2018-02-05T13:43:58.321Z,8.80
2018-02-05T13:46:25.893Z,9.00
2018-02-05T13:48:53.417Z,12.73
2018-02-05T13:51:20.995Z,9.13
2018-02-05T13:53:48.582Z,7.20
2018-02-05T13:56:16.117Z,14.93
2018-02-05T13:58:43.642Z,8.10
2018-02-05T14:01:11.347Z,10.03
2018-02-05T14:03:38.915Z,9.93
2018-02-05T14:06:06.529Z,7.93
2018-02-05T14:08:34.096Z,9.47
2018-02-05T14:11:01.626Z,6.97
2018-02-05T14:13:29.178Z,11.73
2018-02-05T14:15:56.857Z,5.23
2018-02-05T14:18:24.714Z,10.83
2018-02-05T14:20:52.247Z,9.93
2018-02-05T14:23:19.818Z,6.40
2018-02-05T14:25:47.335Z,7.17
2018-02-05T14:28:14.899Z,8.33
2018-02-05T14:30:42.494Z,9.23
2018-02-05T14:33:10.061Z,8.83
2018-02-05T14:35:37.611Z,10.60
2018-02-05T14:38:05.165Z,14.13
2018-02-05T14:40:32.805Z,9.60
2018-02-05T14:43:00.358Z,15.47
2018-02-05T14:45:27.933Z,8.87
2018-02-05T14:47:55.499Z,12.47
2018-02-05T14:50:23.400Z,8.30
2018-02-05T14:52:50.958Z,8.20
2018-02-05T14:55:18.531Z,8.00
2018-02-05T14:57:46.110Z,8.90
2018-02-05T15:00:13.758Z,14.90
2018-02-05T15:02:41.272Z,18.57
2018-02-05T15:05:09.099Z,12.30
2018-02-05T15:07:36.723Z,16.57
2018-02-05T15:10:04.257Z,9.07
2018-02-05T15:12:31.804Z,8.80
2018-02-05T15:14:59.419Z,6.87
2018-02-05T15:17:26.935Z,9.63
2018-02-05T15:19:54.449Z,14.57
2018-02-05T15:22:22.078Z,13.30
2018-02-05T15:24:49.740Z,8.90
2018-02-05T15:27:17.269Z,22.43
2018-02-05T15:29:44.813Z,18.53
2018-02-05T15:32:13.244Z,20.03
2018-02-05T15:34:40.851Z,16.07
2018-02-05T15:37:08.798Z,22.17
2018-02-05T15:39:37.186Z,10.50
2018-02-05T15:42:05.121Z,16.00
2018-02-05T15:44:32.811Z,15.67
2018-02-05T15:47:00.432Z,13.47
2018-02-05T15:49:28.013Z,22.13
2018-02-05T15:51:55.752Z,17.23
2018-02-05T15:54:23.334Z,19.90
2018-02-05T15:56:50.891Z,11.00
2018-02-05T15:59:18.700Z,16.53
2018-02-05T16:01:46.349Z,25.93
2018-02-05T16:04:13.905Z,14.20
2018-02-05T16:06:41.442Z,17.60
2018-02-05T16:09:09.246Z,16.77
2018-02-05T16:11:37.026Z,21.53
2018-02-05T16:14:04.632Z,239.17
2018-02-05T16:16:32.986Z,10.90
2018-02-05T16:19:00.632Z,17.20
2018-02-05T16:21:28.193Z,98.67
2018-02-05T16:23:55.779Z,51.40
2018-02-05T16:26:23.318Z,23.77
2018-02-05T16:28:51.436Z,25.83
2018-02-05T16:31:19.056Z,28.67
2018-02-05T16:33:46.693Z,29.60
2018-02-05T16:36:14.280Z,22.23
2018-02-05T16:38:41.991Z,33.47
2018-02-05T16:41:09.595Z,34.40
2018-02-05T16:43:37.374Z,28.80
2018-02-05T16:46:05.062Z,29.07
2018-02-05T16:48:32.689Z,33.10
2018-02-05T16:51:00.415Z,26.40
2018-02-05T16:53:28.058Z,29.63
2018-02-05T16:55:56.270Z,29.77
2018-02-05T16:58:23.838Z,32.67
2018-02-05T17:00:51.413Z,34.07
2018-02-05T17:03:18.938Z,28.33
2018-02-05T17:05:47.303Z,28.87
2018-02-05T17:08:14.968Z,45.63
2018-02-05T17:10:42.523Z,52.43
2018-02-05T17:13:10.111Z,41.80
2018-02-05T17:15:37.687Z,54.00
2018-02-05T17:18:05.241Z,40.00
2018-02-05T17:20:32.901Z,29.33
2018-02-05T17:23:00.480Z,35.27
2018-02-05T17:25:28.097Z,24.53
2018-02-05T17:27:55.702Z,27.40
2018-02-05T17:30:23.353Z,30.77
2018-02-05T17:32:50.950Z,41.27
2018-02-05T17:35:18.512Z,41.67
2018-02-05T17:37:46.158Z,28.13
2018-02-05T17:40:13.727Z,28.07
2018-02-05T17:42:41.280Z,22.23
2018-02-05T17:45:08.963Z,25.90
2018-02-05T17:47:36.513Z,27.40
2018-02-05T17:50:04.073Z,30.50
2018-02-05T17:52:31.650Z,29.87
2018-02-05T17:55:00.498Z,30.37
2018-02-05T17:57:29.141Z,27.40
2018-02-05T17:59:56.751Z,29.77
2018-02-05T18:02:24.433Z,25.90
2018-02-05T18:04:52.176Z,22.73
2018-02-05T18:07:19.709Z,24.97
2018-02-05T18:09:47.329Z,37.90
2018-02-05T18:12:14.970Z,23.27
2018-02-05T18:14:42.928Z,29.77
2018-02-05T18:17:10.505Z,22.83
2018-02-05T18:19:38.364Z,26.27
2018-02-05T18:22:05.960Z,19.97
2018-02-05T18:24:33.671Z,20.20
2018-02-05T18:27:02.044Z,19.83
2018-02-05T18:29:29.592Z,28.53
2018-02-05T18:31:57.279Z,20.33
2018-02-05T18:34:24.816Z,22.90
2018-02-05T18:36:52.649Z,24.60
2018-02-05T18:39:22.459Z,18.33
2018-02-05T18:41:50.510Z,24.97
2018-02-05T18:44:18.895Z,21.00
2018-02-05T18:46:46.473Z,23.83
2018-02-05T18:49:14.054Z,25.23
2018-02-05T18:51:41.602Z,30.10
2018-02-05T18:54:09.539Z,29.33
2018-02-05T18:56:44.906Z,26.43
2018-02-05T18:59:12.513Z,30.90
2018-02-05T19:01:40.426Z,34.10
2018-02-05T19:04:07.997Z,33.70
2018-02-05T19:06:36.462Z,28.37
2018-02-05T19:09:04.067Z,38.27
2018-02-05T19:11:31.631Z,28.90
2018-02-05T19:13:59.437Z,38.73
2018-02-05T19:16:27.058Z,32.80
2018-02-05T19:18:54.849Z,37.97
2018-02-05T19:21:22.854Z,39.67
2018-02-05T19:23:50.982Z,35.23
2018-02-05T19:26:18.593Z,39.50
2018-02-05T19:28:46.400Z,37.47
2018-02-05T19:31:14.427Z,40.07
2018-02-05T19:33:41.975Z,38.17
2018-02-05T19:36:10.221Z,43.40
2018-02-05T19:38:38.884Z,46.60
2018-02-05T19:41:06.703Z,39.40
2018-02-05T19:43:34.295Z,40.37
2018-02-05T19:46:01.953Z,50.27
2018-02-05T19:48:30.184Z,46.83
2018-02-05T19:50:57.771Z,89.10
2018-02-05T19:53:25.530Z,90.17
2018-02-05T19:55:53.338Z,164.93
2018-02-05T19:58:21.122Z,154.77
2018-02-05T20:00:48.732Z,181.63
2018-02-05T20:03:16.302Z,199.03
2018-02-05T20:05:43.848Z,191.63
2018-02-05T20:08:11.481Z,160.60
2018-02-05T20:10:39.427Z,186.60
2018-02-05T20:13:07.324Z,220.20
2018-02-05T20:15:34.942Z,218.30
2018-02-05T20:18:02.558Z,208.57
2018-02-05T20:20:30.103Z,262.73
2018-02-05T20:22:57.777Z,171.83
2018-02-05T20:25:25.383Z,287.50
2018-02-05T20:27:53.156Z,241.60
2018-02-05T20:30:20.954Z,223.50
2018-02-05T20:32:48.815Z,232.70
2018-02-05T20:35:17.329Z,242.17
2018-02-05T20:37:45.138Z,157.20
2018-02-05T20:40:14.676Z,164.37
2018-02-05T20:42:42.215Z,124.90
2018-02-05T20:45:09.817Z,136.07
2018-02-05T20:47:41.304Z,119.90
2018-02-05T20:50:15.443Z,110.63
2018-02-05T20:52:42.994Z,134.63
2018-02-05T20:55:10.556Z,170.83
2018-02-05T20:57:39.197Z,201.50
2018-02-05T21:00:07.842Z,177.03
2018-02-05T21:02:36.104Z,214.20
2018-02-05T21:05:03.665Z,205.33
2018-02-05T21:07:31.708Z,247.63
2018-02-05T21:09:59.275Z,231.57
2018-02-05T21:12:27.174Z,281.13
2018-02-05T21:14:54.880Z,201.10
2018-02-05T21:17:28.469Z,216.83
2018-02-05T21:19:56.267Z,251.67
2018-02-05T21:23:00.239Z,204.37
2018-02-05T21:25:32.648Z,224.17
2018-02-05T21:28:01.203Z,171.73
2018-02-05T21:30:28.892Z,147.10
2018-02-05T21:32:56.461Z,126.97
2018-02-05T21:35:25.836Z,127.90
2018-02-05T21:37:53.485Z,124.30
2018-02-05T21:40:22.967Z,121.40
2018-02-05T21:42:50.744Z,125.67
2018-02-05T21:45:18.418Z,126.27
2018-02-05T21:47:46.013Z,138.00
2018-02-05T21:50:13.555Z,101.10
2018-02-05T21:52:41.220Z,97.17
2018-02-05T21:55:08.988Z,50.47
2018-02-05T22:11:43.618Z,58.67
2018-02-05T22:14:11.230Z,40.27
2018-02-05T22:16:39.065Z,45.83
2018-02-05T22:19:06.883Z,46.03
2018-02-05T22:21:34.394Z,42.40
2018-02-05T22:24:01.914Z,39.63
2018-02-05T22:26:29.602Z,33.87
2018-02-05T22:28:57.144Z,47.17
2018-02-05T22:34:35.083Z,47.63
2018-02-05T22:37:02.777Z,36.27
2018-02-05T22:53:26.132Z,30.10
2018-02-05T22:55:53.713Z,31.80
2018-02-05T22:58:21.589Z,29.87
2018-02-05T23:00:49.242Z,28.40
2018-02-05T23:03:16.786Z,39.10
2018-02-05T23:05:44.320Z,48.77
2018-02-05T23:08:11.976Z,51.33
2018-02-05T23:10:39.509Z,57.23
2018-02-05T23:13:07.059Z,68.20
2018-02-05T23:15:35.430Z,78.33
2018-02-05T23:18:04.075Z,86.30
2018-02-05T23:20:33.048Z,63.60
2018-02-05T23:23:00.792Z,65.17
2018-02-05T23:25:28.962Z,59.63
2018-02-05T23:27:56.765Z,60.27
2018-02-05T23:30:24.797Z,68.07
2018-02-05T23:32:52.376Z,69.57
2018-02-05T23:35:20.007Z,47.60
2018-02-05T23:37:56.115Z,43.33
2018-02-05T23:40:24.406Z,56.60
2018-02-05T23:42:51.933Z,52.13
2018-02-05T23:45:20.624Z,53.80
2018-02-05T23:47:48.147Z,53.87
2018-02-05T23:50:17.760Z,52.67
2018-02-05T23:52:47.703Z,53.17
2018-02-05T23:55:15.465Z,43.17
2018-02-05T23:57:43.016Z,45.33
